sensor_id;sensor_type;location;lat;lon;timestamp;temperature;humidity
70826;SHT31;58446;41.490;22.098;2023-03-01T00:01:14;11.35;82.04
70826;SHT31;58446;41.490;22.098;2023-03-01T00:03:39;11.25;82.55
70826;SHT31;58446;41.490;22.098;2023-03-01T00:06:06;11.14;83.12
70826;SHT31;58446;41.490;22.098;2023-03-01T00:08:32;10.96;83.84
70826;SHT31;58446;41.490;22.098;2023-03-01T00:13:34;10.71;85.29
70826;SHT31;58446;41.490;22.098;2023-03-01T00:16:05;10.77;85.18
70826;SHT31;58446;41.490;22.098;2023-03-01T00:18:31;10.81;85.18
70826;SHT31;58446;41.490;22.098;2023-03-01T00:20:58;10.88;84.74
70826;SHT31;58446;41.490;22.098;2023-03-01T00:23:24;10.89;84.92
70826;SHT31;58446;41.490;22.098;2023-03-01T00:25:50;10.88;84.88
70826;SHT31;58446;41.490;22.098;2023-03-01T00:28:16;11.09;83.63
70826;SHT31;58446;41.490;22.098;2023-03-01T00:30:42;11.33;82.19
70826;SHT31;58446;41.490;22.098;2023-03-01T00:33:07;11.63;80.83
70826;SHT31;58446;41.490;22.098;2023-03-01T00:35:33;11.71;80.43
70826;SHT31;58446;41.490;22.098;2023-03-01T00:37:59;11.81;80.12
70826;SHT31;58446;41.490;22.098;2023-03-01T00:40:27;11.84;80.05
70826;SHT31;58446;41.490;22.098;2023-03-01T00:42:53;11.94;79.58
70826;SHT31;58446;41.490;22.098;2023-03-01T00:45:18;12.02;79.06
70826;SHT31;58446;41.490;22.098;2023-03-01T00:47:44;12.10;78.75
70826;SHT31;58446;41.490;22.098;2023-03-01T00:50:11;12.13;78.65
70826;SHT31;58446;41.490;22.098;2023-03-01T00:52:37;12.10;78.78
70826;SHT31;58446;41.490;22.098;2023-03-01T00:55:03;12.10;78.70
70826;SHT31;58446;41.490;22.098;2023-03-01T00:57:29;12.11;78.67
70826;SHT31;58446;41.490;22.098;2023-03-01T00:59:55;12.11;78.56
70826;SHT31;58446;41.490;22.098;2023-03-01T01:02:21;12.11;78.58
70826;SHT31;58446;41.490;22.098;2023-03-01T01:04:47;11.97;79.06
70826;SHT31;58446;41.490;22.098;2023-03-01T01:07:13;12.02;78.94
70826;SHT31;58446;41.490;22.098;2023-03-01T01:09:39;12.13;78.57
70826;SHT31;58446;41.490;22.098;2023-03-01T01:12:05;12.10;78.55
70826;SHT31;58446;41.490;22.098;2023-03-01T01:14:31;12.02;78.81
70826;SHT31;58446;41.490;22.098;2023-03-01T01:16:56;12.15;78.51
70826;SHT31;58446;41.490;22.098;2023-03-01T01:19:23;12.14;78.39
70826;SHT31;58446;41.490;22.098;2023-03-01T01:21:49;12.17;78.46
70826;SHT31;58446;41.490;22.098;2023-03-01T01:24:16;12.18;78.19
70826;SHT31;58446;41.490;22.098;2023-03-01T01:26:42;12.22;78.04
70826;SHT31;58446;41.490;22.098;2023-03-01T01:29:08;12.15;78.20
70826;SHT31;58446;41.490;22.098;2023-03-01T01:31:35;12.13;78.44
70826;SHT31;58446;41.490;22.098;2023-03-01T01:34:03;12.20;78.27
70826;SHT31;58446;41.490;22.098;2023-03-01T01:36:29;12.08;78.57
70826;SHT31;58446;41.490;22.098;2023-03-01T01:38:55;12.08;78.66
70826;SHT31;58446;41.490;22.098;2023-03-01T01:41:21;11.98;79.20
70826;SHT31;58446;41.490;22.098;2023-03-01T01:44:08;11.93;79.64
70826;SHT31;58446;41.490;22.098;2023-03-01T01:46:41;11.80;80.23
70826;SHT31;58446;41.490;22.098;2023-03-01T01:51:42;11.76;80.52
70826;SHT31;58446;41.490;22.098;2023-03-01T01:54:13;11.83;80.25
70826;SHT31;58446;41.490;22.098;2023-03-01T01:56:42;11.84;80.27
70826;SHT31;58446;41.490;22.098;2023-03-01T01:59:09;11.80;80.35
70826;SHT31;58446;41.490;22.098;2023-03-01T02:01:34;11.42;82.40
70826;SHT31;58446;41.490;22.098;2023-03-01T02:04:00;11.65;81.27
70826;SHT31;58446;41.490;22.098;2023-03-01T02:06:29;11.86;80.20
70826;SHT31;58446;41.490;22.098;2023-03-01T02:09:06;11.87;79.98
70826;SHT31;58446;41.490;22.098;2023-03-01T02:11:33;11.86;80.09
70826;SHT31;58446;41.490;22.098;2023-03-01T02:13:59;11.86;80.14
70826;SHT31;58446;41.490;22.098;2023-03-01T02:16:25;11.87;80.20
70826;SHT31;58446;41.490;22.098;2023-03-01T02:18:52;11.84;80.17
70826;SHT31;58446;41.490;22.098;2023-03-01T02:23:46;12.15;79.14
70826;SHT31;58446;41.490;22.098;2023-03-01T02:26:18;12.20;78.92
70826;SHT31;58446;41.490;22.098;2023-03-01T02:28:45;12.21;78.83
70826;SHT31;58446;41.490;22.098;2023-03-01T02:31:15;12.21;78.78
70826;SHT31;58446;41.490;22.098;2023-03-01T02:34:00;12.21;78.84
70826;SHT31;58446;41.490;22.098;2023-03-01T02:36:42;12.18;78.86
70826;SHT31;58446;41.490;22.098;2023-03-01T02:39:14;12.13;79.09
70826;SHT31;58446;41.490;22.098;2023-03-01T02:41:46;12.07;79.35
70826;SHT31;58446;41.490;22.098;2023-03-01T02:44:12;12.08;79.38
70826;SHT31;58446;41.490;22.098;2023-03-01T02:46:49;12.05;79.45
70826;SHT31;58446;41.490;22.098;2023-03-01T02:49:20;12.02;79.50
70826;SHT31;58446;41.490;22.098;2023-03-01T02:54:59;12.07;79.32
70826;SHT31;58446;41.490;22.098;2023-03-01T02:57:27;11.95;79.67
70826;SHT31;58446;41.490;22.098;2023-03-01T02:59:59;12.07;79.47
70826;SHT31;58446;41.490;22.098;2023-03-01T03:02:29;12.13;79.32
70826;SHT31;58446;41.490;22.098;2023-03-01T03:05:21;12.01;79.65
70826;SHT31;58446;41.490;22.098;2023-03-01T03:07:48;11.99;79.90
70826;SHT31;58446;41.490;22.098;2023-03-01T03:10:21;11.98;79.76
70826;SHT31;58446;41.490;22.098;2023-03-01T03:12:52;12.07;79.60
70826;SHT31;58446;41.490;22.098;2023-03-01T03:15:18;12.13;79.14
70826;SHT31;58446;41.490;22.098;2023-03-01T03:17:44;12.14;79.10
70826;SHT31;58446;41.490;22.098;2023-03-01T03:20:12;11.99;79.93
70826;SHT31;58446;41.490;22.098;2023-03-01T03:22:47;12.08;79.49
70826;SHT31;58446;41.490;22.098;2023-03-01T03:25:14;12.11;79.27
70826;SHT31;58446;41.490;22.098;2023-03-01T03:27:41;12.01;79.63
70826;SHT31;58446;41.490;22.098;2023-03-01T03:30:10;11.97;79.82
70826;SHT31;58446;41.490;22.098;2023-03-01T03:32:38;11.84;80.67
70826;SHT31;58446;41.490;22.098;2023-03-01T03:35:06;11.90;80.43
70826;SHT31;58446;41.490;22.098;2023-03-01T03:37:38;12.04;79.87
70826;SHT31;58446;41.490;22.098;2023-03-01T03:40:22;12.04;79.68
70826;SHT31;58446;41.490;22.098;2023-03-01T03:42:48;11.98;79.78
70826;SHT31;58446;41.490;22.098;2023-03-01T03:45:17;12.01;79.88
70826;SHT31;58446;41.490;22.098;2023-03-01T03:47:43;11.98;79.99
70826;SHT31;58446;41.490;22.098;2023-03-01T03:50:11;11.98;80.03
70826;SHT31;58446;41.490;22.098;2023-03-01T03:52:37;11.97;80.12
70826;SHT31;58446;41.490;22.098;2023-03-01T03:55:03;11.97;80.26
70826;SHT31;58446;41.490;22.098;2023-03-01T03:57:29;11.86;80.65
70826;SHT31;58446;41.490;22.098;2023-03-01T03:59:54;11.71;81.43
70826;SHT31;58446;41.490;22.098;2023-03-01T04:02:20;11.81;80.99
70826;SHT31;58446;41.490;22.098;2023-03-01T04:04:49;11.87;80.76
70826;SHT31;58446;41.490;22.098;2023-03-01T04:07:18;12.01;80.25
70826;SHT31;58446;41.490;22.098;2023-03-01T04:09:44;12.05;79.98
70826;SHT31;58446;41.490;22.098;2023-03-01T04:12:10;12.10;79.87
70826;SHT31;58446;41.490;22.098;2023-03-01T04:14:36;12.04;79.95
70826;SHT31;58446;41.490;22.098;2023-03-01T04:17:02;11.95;80.21
70826;SHT31;58446;41.490;22.098;2023-03-01T04:19:31;11.81;81.13
70826;SHT31;58446;41.490;22.098;2023-03-01T04:22:04;11.53;82.85
70826;SHT31;58446;41.490;22.098;2023-03-01T04:24:37;11.57;82.59
70826;SHT31;58446;41.490;22.098;2023-03-01T04:27:03;11.59;82.23
70826;SHT31;58446;41.490;22.098;2023-03-01T04:29:28;11.66;82.05
70826;SHT31;58446;41.490;22.098;2023-03-01T04:31:54;11.52;82.58
70826;SHT31;58446;41.490;22.098;2023-03-01T04:34:20;11.46;83.06
70826;SHT31;58446;41.490;22.098;2023-03-01T04:36:46;11.50;82.33
70826;SHT31;58446;41.490;22.098;2023-03-01T04:39:11;11.63;81.69
70826;SHT31;58446;41.490;22.098;2023-03-01T04:41:40;11.76;81.02
70826;SHT31;58446;41.490;22.098;2023-03-01T04:44:06;11.81;80.65
70826;SHT31;58446;41.490;22.098;2023-03-01T04:46:32;11.86;80.50
70826;SHT31;58446;41.490;22.098;2023-03-01T04:48:58;11.86;80.22
70826;SHT31;58446;41.490;22.098;2023-03-01T04:51:23;11.88;80.04
70826;SHT31;58446;41.490;22.098;2023-03-01T04:53:49;11.91;79.92
70826;SHT31;58446;41.490;22.098;2023-03-01T04:56:16;11.93;79.79
70826;SHT31;58446;41.490;22.098;2023-03-01T04:58:44;11.88;79.85
70826;SHT31;58446;41.490;22.098;2023-03-01T05:01:18;11.77;80.30
70826;SHT31;58446;41.490;22.098;2023-03-01T05:03:47;11.67;80.29
70826;SHT31;58446;41.490;22.098;2023-03-01T05:06:13;11.69;80.52
70826;SHT31;58446;41.490;22.098;2023-03-01T05:08:40;11.66;80.57
70826;SHT31;58446;41.490;22.098;2023-03-01T05:11:06;11.74;80.07
70826;SHT31;58446;41.490;22.098;2023-03-01T05:13:35;11.78;79.73
70826;SHT31;58446;41.490;22.098;2023-03-01T05:16:01;11.78;79.75
70826;SHT31;58446;41.490;22.098;2023-03-01T05:18:29;11.78;79.63
70826;SHT31;58446;41.490;22.098;2023-03-01T05:21:01;11.71;79.66
70826;SHT31;58446;41.490;22.098;2023-03-01T05:23:28;11.76;79.64
70826;SHT31;58446;41.490;22.098;2023-03-01T05:25:54;11.74;79.59
70826;SHT31;58446;41.490;22.098;2023-03-01T05:28:22;11.71;79.59
70826;SHT31;58446;41.490;22.098;2023-03-01T05:30:48;11.67;79.73
70826;SHT31;58446;41.490;22.098;2023-03-01T05:33:17;11.67;79.63
70826;SHT31;58446;41.490;22.098;2023-03-01T05:35:44;11.49;80.08
70826;SHT31;58446;41.490;22.098;2023-03-01T05:38:12;11.53;80.12
70826;SHT31;58446;41.490;22.098;2023-03-01T05:40:42;11.59;79.91
70826;SHT31;58446;41.490;22.098;2023-03-01T05:43:09;11.63;79.70
70826;SHT31;58446;41.490;22.098;2023-03-01T05:45:37;11.69;79.40
70826;SHT31;58446;41.490;22.098;2023-03-01T05:48:04;11.70;79.31
70826;SHT31;58446;41.490;22.098;2023-03-01T05:50:34;11.62;79.56
70826;SHT31;58446;41.490;22.098;2023-03-01T05:53:03;11.67;79.28
70826;SHT31;58446;41.490;22.098;2023-03-01T05:55:34;11.70;79.27
70826;SHT31;58446;41.490;22.098;2023-03-01T05:58:02;11.74;79.11
70826;SHT31;58446;41.490;22.098;2023-03-01T06:00:29;11.57;79.33
70826;SHT31;58446;41.490;22.098;2023-03-01T06:02:56;11.71;79.18
70826;SHT31;58446;41.490;22.098;2023-03-01T06:05:23;11.76;78.95
70826;SHT31;58446;41.490;22.098;2023-03-01T06:07:48;11.73;79.08
70826;SHT31;58446;41.490;22.098;2023-03-01T06:10:16;11.76;78.75
70826;SHT31;58446;41.490;22.098;2023-03-01T06:12:42;11.74;78.79
70826;SHT31;58446;41.490;22.098;2023-03-01T06:15:10;11.74;78.99
70826;SHT31;58446;41.490;22.098;2023-03-01T06:17:37;11.66;79.11
70826;SHT31;58446;41.490;22.098;2023-03-01T06:20:05;11.65;79.25
70826;SHT31;58446;41.490;22.098;2023-03-01T06:22:31;11.66;79.25
70826;SHT31;58446;41.490;22.098;2023-03-01T06:24:57;11.71;78.89
70826;SHT31;58446;41.490;22.098;2023-03-01T06:27:22;11.74;78.73
70826;SHT31;58446;41.490;22.098;2023-03-01T06:29:48;11.74;78.61
70826;SHT31;58446;41.490;22.098;2023-03-01T06:32:14;11.71;78.58
70826;SHT31;58446;41.490;22.098;2023-03-01T06:34:39;11.66;78.89
70826;SHT31;58446;41.490;22.098;2023-03-01T06:37:06;11.70;78.77
70826;SHT31;58446;41.490;22.098;2023-03-01T06:39:32;11.60;79.19
70826;SHT31;58446;41.490;22.098;2023-03-01T06:41:59;11.57;79.31
70826;SHT31;58446;41.490;22.098;2023-03-01T06:44:25;11.62;79.23
70826;SHT31;58446;41.490;22.098;2023-03-01T06:46:51;11.69;78.92
70826;SHT31;58446;41.490;22.098;2023-03-01T06:49:17;11.71;78.58
70826;SHT31;58446;41.490;22.098;2023-03-01T06:51:44;11.70;78.63
70826;SHT31;58446;41.490;22.098;2023-03-01T06:54:10;11.71;78.53
70826;SHT31;58446;41.490;22.098;2023-03-01T06:56:35;11.70;78.52
70826;SHT31;58446;41.490;22.098;2023-03-01T06:59:02;11.67;78.55
70826;SHT31;58446;41.490;22.098;2023-03-01T07:01:28;11.47;79.17
70826;SHT31;58446;41.490;22.098;2023-03-01T07:03:54;11.56;79.08
70826;SHT31;58446;41.490;22.098;2023-03-01T07:06:20;11.59;79.06
70826;SHT31;58446;41.490;22.098;2023-03-01T07:08:46;11.60;78.84
70826;SHT31;58446;41.490;22.098;2023-03-01T07:11:12;11.65;78.60
70826;SHT31;58446;41.490;22.098;2023-03-01T07:13:38;11.67;78.57
70826;SHT31;58446;41.490;22.098;2023-03-01T07:16:04;11.59;78.92
70826;SHT31;58446;41.490;22.098;2023-03-01T07:18:29;11.63;78.69
70826;SHT31;58446;41.490;22.098;2023-03-01T07:20:55;11.67;78.61
70826;SHT31;58446;41.490;22.098;2023-03-01T07:23:21;11.59;78.57
70826;SHT31;58446;41.490;22.098;2023-03-01T07:25:53;11.56;78.92
70826;SHT31;58446;41.490;22.098;2023-03-01T07:28:20;11.53;79.15
70826;SHT31;58446;41.490;22.098;2023-03-01T07:30:45;11.56;78.95
70826;SHT31;58446;41.490;22.098;2023-03-01T07:33:11;11.46;79.45
70826;SHT31;58446;41.490;22.098;2023-03-01T07:35:37;11.32;80.01
70826;SHT31;58446;41.490;22.098;2023-03-01T07:38:02;11.44;79.50
70826;SHT31;58446;41.490;22.098;2023-03-01T07:40:29;11.33;79.78
70826;SHT31;58446;41.490;22.098;2023-03-01T07:42:59;11.44;79.50
70826;SHT31;58446;41.490;22.098;2023-03-01T07:45:25;11.39;79.69
70826;SHT31;58446;41.490;22.098;2023-03-01T07:47:52;11.40;79.44
70826;SHT31;58446;41.490;22.098;2023-03-01T07:50:18;11.43;79.53
70826;SHT31;58446;41.490;22.098;2023-03-01T07:52:49;11.40;79.61
70826;SHT31;58446;41.490;22.098;2023-03-01T07:55:16;11.39;79.74
70826;SHT31;58446;41.490;22.098;2023-03-01T07:57:42;11.37;79.89
70826;SHT31;58446;41.490;22.098;2023-03-01T08:00:10;11.35;79.60
70826;SHT31;58446;41.490;22.098;2023-03-01T08:02:36;11.26;79.81
70826;SHT31;58446;41.490;22.098;2023-03-01T08:05:02;11.27;80.17
70826;SHT31;58446;41.490;22.098;2023-03-01T08:07:28;11.36;79.84
70826;SHT31;58446;41.490;22.098;2023-03-01T08:09:56;11.33;80.15
70826;SHT31;58446;41.490;22.098;2023-03-01T08:12:22;11.33;80.08
70826;SHT31;58446;41.490;22.098;2023-03-01T08:14:48;11.42;79.84
70826;SHT31;58446;41.490;22.098;2023-03-01T08:17:14;11.50;79.52
70826;SHT31;58446;41.490;22.098;2023-03-01T08:19:40;11.63;79.01
70826;SHT31;58446;41.490;22.098;2023-03-01T08:22:05;11.56;79.28
70826;SHT31;58446;41.490;22.098;2023-03-01T08:24:31;11.62;79.03
70826;SHT31;58446;41.490;22.098;2023-03-01T08:26:57;11.52;79.42
70826;SHT31;58446;41.490;22.098;2023-03-01T08:29:22;11.46;79.78
70826;SHT31;58446;41.490;22.098;2023-03-01T08:31:50;11.53;79.73
70826;SHT31;58446;41.490;22.098;2023-03-01T08:34:17;11.50;79.33
70826;SHT31;58446;41.490;22.098;2023-03-01T08:36:45;11.60;79.04
70826;SHT31;58446;41.490;22.098;2023-03-01T08:39:16;11.57;79.38
70826;SHT31;58446;41.490;22.098;2023-03-01T08:41:42;11.55;79.49
70826;SHT31;58446;41.490;22.098;2023-03-01T08:44:10;11.55;79.55
70826;SHT31;58446;41.490;22.098;2023-03-01T08:46:38;11.56;79.44
70826;SHT31;58446;41.490;22.098;2023-03-01T08:49:05;11.60;79.38
70826;SHT31;58446;41.490;22.098;2023-03-01T08:51:32;11.70;78.91
70826;SHT31;58446;41.490;22.098;2023-03-01T08:54:03;11.63;79.35
70826;SHT31;58446;41.490;22.098;2023-03-01T08:56:29;11.80;78.48
70826;SHT31;58446;41.490;22.098;2023-03-01T08:58:54;11.76;79.14
70826;SHT31;58446;41.490;22.098;2023-03-01T09:01:20;11.65;79.85
70826;SHT31;58446;41.490;22.098;2023-03-01T09:03:46;11.76;78.86
70826;SHT31;58446;41.490;22.098;2023-03-01T09:06:13;11.76;79.00
70826;SHT31;58446;41.490;22.098;2023-03-01T09:08:44;11.81;78.86
70826;SHT31;58446;41.490;22.098;2023-03-01T09:11:13;11.73;78.99
70826;SHT31;58446;41.490;22.098;2023-03-01T09:13:39;11.69;79.32
70826;SHT31;58446;41.490;22.098;2023-03-01T09:16:07;11.60;79.86
70826;SHT31;58446;41.490;22.098;2023-03-01T09:18:34;11.81;78.80
70826;SHT31;58446;41.490;22.098;2023-03-01T09:21:11;11.88;78.43
70826;SHT31;58446;41.490;22.098;2023-03-01T09:23:43;11.99;77.85
70826;SHT31;58446;41.490;22.098;2023-03-01T09:26:17;11.86;78.52
70826;SHT31;58446;41.490;22.098;2023-03-01T09:28:46;11.81;78.74
70826;SHT31;58446;41.490;22.098;2023-03-01T09:31:12;11.83;78.80
70826;SHT31;58446;41.490;22.098;2023-03-01T09:33:39;11.93;78.25
70826;SHT31;58446;41.490;22.098;2023-03-01T09:36:08;11.93;78.11
70826;SHT31;58446;41.490;22.098;2023-03-01T09:38:35;12.05;77.72
70826;SHT31;58446;41.490;22.098;2023-03-01T09:41:08;12.08;77.53
70826;SHT31;58446;41.490;22.098;2023-03-01T09:43:49;12.02;77.92
70826;SHT31;58446;41.490;22.098;2023-03-01T09:46:20;11.86;78.32
70826;SHT31;58446;41.490;22.098;2023-03-01T09:49:07;11.97;77.97
70826;SHT31;58446;41.490;22.098;2023-03-01T09:51:36;12.05;77.68
70826;SHT31;58446;41.490;22.098;2023-03-01T09:54:04;12.02;77.74
70826;SHT31;58446;41.490;22.098;2023-03-01T09:56:46;12.15;77.17
70826;SHT31;58446;41.490;22.098;2023-03-01T10:09:55;12.34;76.66
70826;SHT31;58446;41.490;22.098;2023-03-01T10:12:26;12.31;76.99
70826;SHT31;58446;41.490;22.098;2023-03-01T10:17:34;12.35;76.61
70826;SHT31;58446;41.490;22.098;2023-03-01T10:20:20;12.36;76.62
70826;SHT31;58446;41.490;22.098;2023-03-01T10:22:47;12.32;76.87
70826;SHT31;58446;41.490;22.098;2023-03-01T10:25:27;12.35;76.82
70826;SHT31;58446;41.490;22.098;2023-03-01T10:28:23;12.32;77.10
70826;SHT31;58446;41.490;22.098;2023-03-01T10:30:46;12.28;77.23
70826;SHT31;58446;41.490;22.098;2023-03-01T10:33:24;12.36;77.00
70826;SHT31;58446;41.490;22.098;2023-03-01T10:35:51;12.32;77.30
70826;SHT31;58446;41.490;22.098;2023-03-01T10:38:18;12.29;77.34
70826;SHT31;58446;41.490;22.098;2023-03-01T10:40:57;12.20;78.15
70826;SHT31;58446;41.490;22.098;2023-03-01T10:43:25;12.07;79.47
70826;SHT31;58446;41.490;22.098;2023-03-01T10:45:52;12.11;79.15
70826;SHT31;58446;41.490;22.098;2023-03-01T10:48:25;12.18;78.21
70826;SHT31;58446;41.490;22.098;2023-03-01T10:51:16;12.15;78.60
70826;SHT31;58446;41.490;22.098;2023-03-01T10:53:48;12.36;77.32
70826;SHT31;58446;41.490;22.098;2023-03-01T10:56:16;12.41;77.19
70826;SHT31;58446;41.490;22.098;2023-03-01T10:59:04;12.38;77.33
70826;SHT31;58446;41.490;22.098;2023-03-01T11:01:32;12.34;77.53
70826;SHT31;58446;41.490;22.098;2023-03-01T11:06:34;12.31;78.23
70826;SHT31;58446;41.490;22.098;2023-03-01T11:09:21;12.28;78.37
70826;SHT31;58446;41.490;22.098;2023-03-01T11:11:55;12.31;77.95
70826;SHT31;58446;41.490;22.098;2023-03-01T11:14:30;12.32;78.05
70826;SHT31;58446;41.490;22.098;2023-03-01T11:20:05;12.39;77.83
70826;SHT31;58446;41.490;22.098;2023-03-01T11:22:33;12.46;77.69
70826;SHT31;58446;41.490;22.098;2023-03-01T11:25:01;12.46;77.58
70826;SHT31;58446;41.490;22.098;2023-03-01T11:27:28;12.48;77.88
70826;SHT31;58446;41.490;22.098;2023-03-01T11:30:06;12.42;79.21
70826;SHT31;58446;41.490;22.098;2023-03-01T11:32:41;12.39;78.31
70826;SHT31;58446;41.490;22.098;2023-03-01T11:37:58;12.58;77.45
70826;SHT31;58446;41.490;22.098;2023-03-01T11:40:33;12.66;77.16
70826;SHT31;58446;41.490;22.098;2023-03-01T11:45:43;12.62;77.91
70826;SHT31;58446;41.490;22.098;2023-03-01T11:51:20;12.73;77.23
70826;SHT31;58446;41.490;22.098;2023-03-01T11:54:04;12.73;77.47
70826;SHT31;58446;41.490;22.098;2023-03-01T12:00:12;12.86;77.27
70826;SHT31;58446;41.490;22.098;2023-03-01T12:08:38;12.79;78.68
70826;SHT31;58446;41.490;22.098;2023-03-01T12:25:51;13.08;77.74
70826;SHT31;58446;41.490;22.098;2023-03-01T12:34:37;13.27;78.55
70826;SHT31;58446;41.490;22.098;2023-03-01T12:40:32;13.33;78.11
70826;SHT31;58446;41.490;22.098;2023-03-01T12:43:22;13.40;77.47
70826;SHT31;58446;41.490;22.098;2023-03-01T12:46:19;13.43;76.72
70826;SHT31;58446;41.490;22.098;2023-03-01T12:49:16;13.48;76.84
70826;SHT31;58446;41.490;22.098;2023-03-01T12:54:30;13.58;76.05
70826;SHT31;58446;41.490;22.098;2023-03-01T12:57:38;13.62;76.17
70826;SHT31;58446;41.490;22.098;2023-03-01T13:02:52;13.59;77.20
70826;SHT31;58446;41.490;22.098;2023-03-01T13:05:34;13.61;76.39
70826;SHT31;58446;41.490;22.098;2023-03-01T13:08:44;13.64;77.33
70826;SHT31;58446;41.490;22.098;2023-03-01T13:11:03;13.68;75.34
70826;SHT31;58446;41.490;22.098;2023-03-01T13:13:30;13.75;75.60
70826;SHT31;58446;41.490;22.098;2023-03-01T13:15:56;13.79;76.93
70826;SHT31;58446;41.490;22.098;2023-03-01T13:21:01;13.89;75.33
70826;SHT31;58446;41.490;22.098;2023-03-01T13:23:33;13.94;75.48
70826;SHT31;58446;41.490;22.098;2023-03-01T13:30:58;14.01;74.49
70826;SHT31;58446;41.490;22.098;2023-03-01T13:35:57;14.20;74.42
70826;SHT31;58446;41.490;22.098;2023-03-01T13:44:24;14.12;74.87
70826;SHT31;58446;41.490;22.098;2023-03-01T13:46:52;14.15;73.65
70826;SHT31;58446;41.490;22.098;2023-03-01T13:49:25;14.09;74.87
70826;SHT31;58446;41.490;22.098;2023-03-01T13:51:52;14.02;73.93
70826;SHT31;58446;41.490;22.098;2023-03-01T13:54:29;13.95;75.45
70826;SHT31;58446;41.490;22.098;2023-03-01T13:56:58;13.88;77.18
70826;SHT31;58446;41.490;22.098;2023-03-01T13:59:24;13.88;75.48
70826;SHT31;58446;41.490;22.098;2023-03-01T14:02:00;13.83;77.17
70826;SHT31;58446;41.490;22.098;2023-03-01T14:04:30;13.74;77.45
70826;SHT31;58446;41.490;22.098;2023-03-01T14:07:22;13.79;76.73
70826;SHT31;58446;41.490;22.098;2023-03-01T14:10:08;13.86;75.53
70826;SHT31;58446;41.490;22.098;2023-03-01T14:12:54;13.90;77.21
70826;SHT31;58446;41.490;22.098;2023-03-01T14:15:31;13.92;76.05
70826;SHT31;58446;41.490;22.098;2023-03-01T14:20:42;14.01;74.68
70826;SHT31;58446;41.490;22.098;2023-03-01T14:23:18;14.04;75.42
70826;SHT31;58446;41.490;22.098;2023-03-01T14:25:56;13.96;75.16
70826;SHT31;58446;41.490;22.098;2023-03-01T14:28:33;14.01;75.87
70826;SHT31;58446;41.490;22.098;2023-03-01T14:31:00;14.05;75.21
70826;SHT31;58446;41.490;22.098;2023-03-01T14:36:10;14.05;75.21
70826;SHT31;58446;41.490;22.098;2023-03-01T14:38:40;14.02;74.59
70826;SHT31;58446;41.490;22.098;2023-03-01T14:41:15;13.99;75.16
70826;SHT31;58446;41.490;22.098;2023-03-01T14:43:45;14.01;74.57
70826;SHT31;58446;41.490;22.098;2023-03-01T14:46:30;13.96;75.40
70826;SHT31;58446;41.490;22.098;2023-03-01T14:49:05;14.04;74.65
70826;SHT31;58446;41.490;22.098;2023-03-01T14:51:38;13.94;75.99
70826;SHT31;58446;41.490;22.098;2023-03-01T14:54:29;13.98;74.65
70826;SHT31;58446;41.490;22.098;2023-03-01T14:57:01;13.99;74.71
70826;SHT31;58446;41.490;22.098;2023-03-01T14:59:27;13.98;74.74
70826;SHT31;58446;41.490;22.098;2023-03-01T15:01:55;13.99;74.71
70826;SHT31;58446;41.490;22.098;2023-03-01T15:04:23;13.86;75.68
70826;SHT31;58446;41.490;22.098;2023-03-01T15:06:53;13.82;75.31
70826;SHT31;58446;41.490;22.098;2023-03-01T15:09:21;13.75;76.04
70826;SHT31;58446;41.490;22.098;2023-03-01T15:11:47;13.79;75.20
70826;SHT31;58446;41.490;22.098;2023-03-01T15:14:42;13.69;76.46
70826;SHT31;58446;41.490;22.098;2023-03-01T15:17:23;13.74;75.71
70826;SHT31;58446;41.490;22.098;2023-03-01T15:19:51;13.81;75.33
70826;SHT31;58446;41.490;22.098;2023-03-01T15:22:17;13.71;76.15
70826;SHT31;58446;41.490;22.098;2023-03-01T15:24:48;13.62;76.71
70826;SHT31;58446;41.490;22.098;2023-03-01T15:27:19;13.58;77.19
70826;SHT31;58446;41.490;22.098;2023-03-01T15:29:51;13.57;77.80
70826;SHT31;58446;41.490;22.098;2023-03-01T15:32:29;13.51;77.91
70826;SHT31;58446;41.490;22.098;2023-03-01T15:34:56;13.47;77.34
70826;SHT31;58446;41.490;22.098;2023-03-01T15:37:45;13.58;76.33
70826;SHT31;58446;41.490;22.098;2023-03-01T15:40:20;13.47;77.21
70826;SHT31;58446;41.490;22.098;2023-03-01T15:42:46;13.37;78.54
70826;SHT31;58446;41.490;22.098;2023-03-01T15:47:52;13.58;76.11
70826;SHT31;58446;41.490;22.098;2023-03-01T15:50:25;13.59;76.03
70826;SHT31;58446;41.490;22.098;2023-03-01T15:52:51;13.62;75.97
70826;SHT31;58446;41.490;22.098;2023-03-01T15:55:28;13.58;76.02
70826;SHT31;58446;41.490;22.098;2023-03-01T16:00:27;13.61;76.07
70826;SHT31;58446;41.490;22.098;2023-03-01T16:02:54;13.64;75.73
70826;SHT31;58446;41.490;22.098;2023-03-01T16:05:27;13.59;75.86
70826;SHT31;58446;41.490;22.098;2023-03-01T16:07:53;13.57;76.14
70826;SHT31;58446;41.490;22.098;2023-03-01T16:10:20;13.43;76.99
70826;SHT31;58446;41.490;22.098;2023-03-01T16:12:46;13.33;77.55
70826;SHT31;58446;41.490;22.098;2023-03-01T16:15:18;13.34;77.53
70826;SHT31;58446;41.490;22.098;2023-03-01T16:17:45;13.24;77.97
70826;SHT31;58446;41.490;22.098;2023-03-01T16:20:11;13.27;77.40
70826;SHT31;58446;41.490;22.098;2023-03-01T16:22:37;13.30;76.82
70826;SHT31;58446;41.490;22.098;2023-03-01T16:25:03;13.27;76.79
70826;SHT31;58446;41.490;22.098;2023-03-01T16:27:29;13.17;76.82
70826;SHT31;58446;41.490;22.098;2023-03-01T16:29:55;13.16;76.77
70826;SHT31;58446;41.490;22.098;2023-03-01T16:32:20;13.16;77.09
70826;SHT31;58446;41.490;22.098;2023-03-01T16:34:46;13.10;76.88
70826;SHT31;58446;41.490;22.098;2023-03-01T16:37:15;12.97;77.38
70826;SHT31;58446;41.490;22.098;2023-03-01T16:39:40;12.97;77.60
70826;SHT31;58446;41.490;22.098;2023-03-01T16:42:06;12.92;77.89
70826;SHT31;58446;41.490;22.098;2023-03-01T16:44:32;12.92;78.01
70826;SHT31;58446;41.490;22.098;2023-03-01T16:46:58;12.93;77.94
70826;SHT31;58446;41.490;22.098;2023-03-01T16:49:23;12.85;78.43
70826;SHT31;58446;41.490;22.098;2023-03-01T16:51:49;12.83;78.48
70826;SHT31;58446;41.490;22.098;2023-03-01T16:54:14;12.83;78.60
70826;SHT31;58446;41.490;22.098;2023-03-01T16:56:40;12.82;78.81
70826;SHT31;58446;41.490;22.098;2023-03-01T16:59:06;12.80;78.99
70826;SHT31;58446;41.490;22.098;2023-03-01T17:01:32;12.79;79.17
70826;SHT31;58446;41.490;22.098;2023-03-01T17:04:03;12.80;79.04
70826;SHT31;58446;41.490;22.098;2023-03-01T17:06:29;12.80;79.19
70826;SHT31;58446;41.490;22.098;2023-03-01T17:08:56;12.76;79.51
70826;SHT31;58446;41.490;22.098;2023-03-01T17:11:22;12.75;79.62
70826;SHT31;58446;41.490;22.098;2023-03-01T17:13:48;12.77;79.68